Time;durP1;ratioP1;P1;durP2;ratioP2;P2;SDS_P1;SDS_P2;PMS_P1;PMS_P2;Temp;Humidity;BMP_temperature;BMP_pressure;BME280_temperature;BME280_humidity;BME280_pressure;Samples;Min_cycle;Max_cycle;Signal;HPM_P1;HPM_P2
2023/08/25 00:01:24;;;;;;;14.70;10.85;;;20.80;99.90;;;;;;5050485;28;20036;-65
2023/08/25 00:03:49;;;;;;;14.32;11.13;;;20.80;99.90;;;;;;5033742;28;20041;-65
2023/08/25 00:06:15;;;;;;;12.80;11.25;;;20.80;99.90;;;;;;5040806;28;20112;-65
2023/08/25 00:08:40;;;;;;;16.50;11.88;;;20.70;99.90;;;;;;5048933;28;20045;-65
2023/08/25 00:11:06;;;;;;;15.02;12.02;;;20.70;99.90;;;;;;5042693;28;20048;-65
2023/08/25 00:13:35;;;;;;;15.43;10.68;;;20.70;99.90;;;;;;5050991;28;20040;-65
2023/08/25 00:16:04;;;;;;;18.13;12.23;;;20.70;99.90;;;;;;5051666;28;20446;-65
2023/08/25 00:18:30;;;;;;;14.32;11.77;;;20.70;99.90;;;;;;5053585;28;20056;-65
2023/08/25 00:20:56;;;;;;;15.85;11.73;;;20.70;99.90;;;;;;5051999;28;20044;-65
2023/08/25 00:23:21;;;;;;;15.25;11.70;;;20.70;99.90;;;;;;5050723;28;20040;-65
2023/08/25 00:25:47;;;;;;;15.82;11.43;;;20.60;99.90;;;;;;5052706;28;20033;-65
2023/08/25 00:28:13;;;;;;;15.48;11.80;;;20.60;99.90;;;;;;5036255;28;20056;-65
2023/08/25 00:30:38;;;;;;;16.63;12.45;;;20.60;99.90;;;;;;5033250;28;20121;-65
2023/08/25 00:33:04;;;;;;;15.85;12.43;;;20.60;99.90;;;;;;5050562;28;20656;-65
2023/08/25 00:35:30;;;;;;;19.60;12.40;;;20.50;99.90;;;;;;5052501;28;20032;-65
2023/08/25 00:37:55;;;;;;;15.05;12.05;;;20.50;99.90;;;;;;5049557;28;20040;-65
2023/08/25 00:40:21;;;;;;;14.25;11.65;;;20.50;99.90;;;;;;5050632;28;20041;-65
2023/08/25 00:42:47;;;;;;;17.02;12.50;;;20.50;99.90;;;;;;5052434;28;20041;-65
2023/08/25 00:45:12;;;;;;;14.02;11.80;;;20.50;99.90;;;;;;5046755;28;20045;-65
2023/08/25 00:47:38;;;;;;;16.42;13.07;;;20.50;99.90;;;;;;5081517;22;20041;-66
2023/08/25 00:50:08;;;;;;;18.17;13.43;;;20.50;99.90;;;;;;5092893;28;20033;-66
2023/08/25 00:52:34;;;;;;;16.50;13.35;;;20.50;99.90;;;;;;5093684;28;20048;-66
2023/08/25 00:55:00;;;;;;;18.25;13.38;;;20.40;99.90;;;;;;5090988;28;20394;-66
2023/08/25 00:57:25;;;;;;;18.35;13.18;;;20.40;99.90;;;;;;5092816;28;20024;-66
2023/08/25 00:59:51;;;;;;;16.95;13.07;;;20.50;99.90;;;;;;5090687;28;20036;-66
2023/08/25 01:02:19;;;;;;;15.85;12.95;;;20.50;99.90;;;;;;5086795;28;20120;-66
2023/08/25 01:04:44;;;;;;;18.33;13.45;;;20.50;99.90;;;;;;5092953;28;20058;-66
2023/08/25 01:07:10;;;;;;;18.15;13.95;;;20.40;99.90;;;;;;5087973;28;20538;-66
2023/08/25 01:09:36;;;;;;;16.52;13.52;;;20.50;99.90;;;;;;5089356;28;20402;-66
2023/08/25 01:12:08;;;;;;;17.85;13.75;;;20.50;99.90;;;;;;5092870;28;20379;-66
2023/08/25 01:14:46;;;;;;;15.98;12.85;;;20.50;99.90;;;;;;5084564;28;20028;-66
2023/08/25 01:17:27;;;;;;;16.23;13.18;;;20.40;99.90;;;;;;5091246;28;20329;-66
2023/08/25 01:20:07;;;;;;;18.88;14.02;;;20.50;99.90;;;;;;5090982;28;20074;-66
2023/08/25 01:22:33;;;;;;;17.08;14.32;;;20.40;99.90;;;;;;5091597;28;20074;-66
2023/08/25 01:25:17;;;;;;;16.67;14.48;;;20.50;99.90;;;;;;5092080;28;20567;-66
2023/08/25 01:27:43;;;;;;;16.80;13.23;;;20.40;99.90;;;;;;5090738;28;20420;-66
2023/08/25 01:30:09;;;;;;;18.60;14.38;;;20.40;99.90;;;;;;5090011;28;20036;-66
2023/08/25 01:32:37;;;;;;;18.67;14.07;;;20.40;99.90;;;;;;5091027;28;20040;-65
2023/08/25 01:35:04;;;;;;;17.70;13.95;;;20.40;99.90;;;;;;5091138;28;20039;-66
2023/08/25 01:37:34;;;;;;;16.67;13.55;;;20.40;99.90;;;;;;5085264;28;20398;-66
2023/08/25 01:40:07;;;;;;;16.13;13.50;;;20.40;99.90;;;;;;5080729;28;20051;-66
2023/08/25 01:42:33;;;;;;;17.77;13.65;;;20.40;99.90;;;;;;5083324;28;20358;-66
2023/08/25 01:45:03;;;;;;;16.83;13.88;;;20.40;99.90;;;;;;5090713;28;20028;-66
2023/08/25 01:47:32;;;;;;;21.05;15.07;;;20.40;99.90;;;;;;5092023;28;20054;-66
2023/08/25 01:49:59;;;;;;;17.77;14.23;;;20.40;99.90;;;;;;5090012;28;20050;-66
2023/08/25 01:52:25;;;;;;;19.80;14.30;;;20.40;99.90;;;;;;5084766;28;20036;-66
2023/08/25 01:54:52;;;;;;;17.63;13.82;;;20.40;99.90;;;;;;5083708;28;20086;-66
2023/08/25 01:57:17;;;;;;;20.92;15.05;;;20.40;99.90;;;;;;5088989;28;20036;-66
2023/08/25 01:59:43;;;;;;;19.30;14.93;;;20.40;99.90;;;;;;5087376;28;20040;-66
2023/08/25 02:02:09;;;;;;;21.15;14.38;;;20.40;99.90;;;;;;5086974;28;20044;-66
2023/08/25 02:04:35;;;;;;;21.52;15.02;;;20.40;99.90;;;;;;5089427;28;20036;-66
2023/08/25 02:07:00;;;;;;;18.40;14.63;;;20.30;99.90;;;;;;5089426;28;20032;-65
2023/08/25 02:09:26;;;;;;;20.58;15.05;;;20.30;99.90;;;;;;5086698;28;20043;-66
2023/08/25 02:11:52;;;;;;;22.02;16.38;;;20.30;99.90;;;;;;5091050;28;20035;-66
2023/08/25 02:14:17;;;;;;;20.50;15.45;;;20.30;99.90;;;;;;5088173;28;20024;-66
2023/08/25 02:16:43;;;;;;;23.42;15.98;;;20.30;99.90;;;;;;5089273;28;20485;-66
2023/08/25 02:19:08;;;;;;;19.30;15.35;;;20.20;99.90;;;;;;5086298;28;20044;-66
2023/08/25 02:21:34;;;;;;;19.63;15.35;;;20.30;99.90;;;;;;5087772;28;20028;-66
2023/08/25 02:23:59;;;;;;;20.70;16.55;;;20.20;99.90;;;;;;5091231;28;20569;-66
2023/08/25 02:26:25;;;;;;;23.20;16.65;;;20.30;99.90;;;;;;5087437;28;20081;-66
2023/08/25 02:28:51;;;;;;;23.27;16.40;;;20.20;99.90;;;;;;5087680;28;20024;-66
2023/08/25 02:31:16;;;;;;;21.92;17.20;;;20.20;99.90;;;;;;5090155;28;20032;-66
2023/08/25 02:33:42;;;;;;;20.25;16.95;;;20.20;99.90;;;;;;5085760;28;20534;-66
2023/08/25 02:36:08;;;;;;;22.65;16.70;;;20.20;99.90;;;;;;5089096;28;20189;-66
2023/08/25 02:38:33;;;;;;;22.77;16.80;;;20.10;99.90;;;;;;5089782;28;20032;-66
2023/08/25 02:40:59;;;;;;;22.60;17.48;;;20.10;99.90;;;;;;5087741;28;20374;-66
2023/08/25 02:43:24;;;;;;;23.77;17.50;;;20.10;99.90;;;;;;5088402;28;20040;-66
2023/08/25 02:45:50;;;;;;;22.73;17.17;;;20.10;99.90;;;;;;5079797;28;20044;-66
2023/08/25 02:48:16;;;;;;;24.10;17.35;;;20.10;99.90;;;;;;5084443;28;20047;-66
2023/08/25 02:50:42;;;;;;;23.15;16.88;;;20.10;99.90;;;;;;5090680;28;20062;-66
2023/08/25 02:53:07;;;;;;;25.23;17.75;;;20.10;99.90;;;;;;5081475;28;20490;-66
2023/08/25 02:55:33;;;;;;;22.88;17.48;;;20.00;99.90;;;;;;5086797;28;20155;-66
2023/08/25 02:57:59;;;;;;;24.63;18.23;;;20.00;99.90;;;;;;5088083;28;20071;-66
2023/08/25 03:00:24;;;;;;;24.23;17.52;;;20.00;99.90;;;;;;5091478;28;20040;-66
2023/08/25 03:02:51;;;;;;;22.20;16.70;;;20.00;99.90;;;;;;5091046;28;20059;-66
2023/08/25 03:05:17;;;;;;;24.98;17.08;;;19.90;99.90;;;;;;5081199;28;20501;-66
2023/08/25 03:07:43;;;;;;;23.05;16.95;;;19.90;99.90;;;;;;5083053;28;20028;-66
2023/08/25 03:10:09;;;;;;;22.17;17.20;;;19.90;99.90;;;;;;5089705;28;20037;-66
2023/08/25 03:12:35;;;;;;;22.95;17.05;;;19.90;99.90;;;;;;5079871;28;20456;-66
2023/08/25 03:15:00;;;;;;;22.92;17.33;;;19.90;99.90;;;;;;5084977;28;20040;-66
2023/08/25 03:17:26;;;;;;;26.70;18.80;;;19.90;99.90;;;;;;5090543;28;20394;-66
2023/08/25 03:19:52;;;;;;;24.02;18.13;;;19.80;99.90;;;;;;5091172;28;20085;-66
2023/08/25 03:22:18;;;;;;;27.15;18.52;;;19.80;99.90;;;;;;5091207;28;20040;-65
2023/08/25 03:24:43;;;;;;;28.60;19.35;;;19.80;99.90;;;;;;5082191;28;20033;-66
2023/08/25 03:27:09;;;;;;;26.00;18.58;;;19.80;99.90;;;;;;5079625;28;20045;-66
2023/08/25 03:29:35;;;;;;;28.33;19.48;;;19.80;99.90;;;;;;5079948;28;20064;-66
2023/08/25 03:32:00;;;;;;;27.02;19.58;;;19.70;99.90;;;;;;5084635;28;20047;-66
2023/08/25 03:34:26;;;;;;;26.38;19.42;;;19.70;99.90;;;;;;5090631;28;20389;-66
2023/08/25 03:36:52;;;;;;;27.58;20.13;;;19.70;99.90;;;;;;5092058;28;20035;-66
2023/08/25 03:39:18;;;;;;;26.27;19.90;;;19.70;99.90;;;;;;5087678;28;20035;-66
2023/08/25 03:41:44;;;;;;;32.08;21.10;;;19.70;99.90;;;;;;5087901;28;20036;-66
2023/08/25 03:44:10;;;;;;;28.23;20.52;;;19.70;99.90;;;;;;5091632;28;20032;-66
2023/08/25 03:46:36;;;;;;;31.88;21.08;;;19.70;99.90;;;;;;5086802;28;20557;-66
2023/08/25 03:49:02;;;;;;;32.28;21.08;;;19.70;99.90;;;;;;5088529;28;20110;-66
2023/08/25 03:51:28;;;;;;;32.55;21.90;;;19.60;99.90;;;;;;5083997;28;20482;-66
2023/08/25 03:53:53;;;;;;;32.97;22.65;;;19.60;99.90;;;;;;5090363;28;20068;-66
2023/08/25 03:56:19;;;;;;;30.63;21.33;;;19.60;99.90;;;;;;5086022;28;20096;-66
2023/08/25 03:58:45;;;;;;;33.17;23.13;;;19.60;99.90;;;;;;5092988;28;20111;-66
2023/08/25 04:01:11;;;;;;;30.95;21.38;;;19.70;99.90;;;;;;5083212;28;20048;-66
2023/08/25 04:03:37;;;;;;;34.60;22.33;;;19.60;99.90;;;;;;5092282;28;20032;-66
2023/08/25 04:06:02;;;;;;;38.33;23.98;;;19.60;99.90;;;;;;5088517;28;20125;-66
2023/08/25 04:08:28;;;;;;;35.35;24.25;;;19.60;99.90;;;;;;5087074;28;20035;-66
2023/08/25 04:10:53;;;;;;;35.72;24.77;;;19.60;99.90;;;;;;5091822;28;20516;-66
2023/08/25 04:13:19;;;;;;;37.92;23.73;;;19.60;99.90;;;;;;5086927;28;20028;-66
2023/08/25 04:15:52;;;;;;;36.67;24.80;;;19.60;99.90;;;;;;5091961;28;20121;-66
2023/08/25 04:18:18;;;;;;;39.85;25.95;;;19.60;99.90;;;;;;5085371;28;20032;-66
2023/08/25 04:20:44;;;;;;;35.88;24.63;;;19.60;99.90;;;;;;5092904;28;20565;-66
2023/08/25 04:23:09;;;;;;;39.85;25.30;;;19.60;99.90;;;;;;5093724;28;20039;-66
2023/08/25 04:25:35;;;;;;;38.38;25.58;;;19.60;99.90;;;;;;5093849;28;20032;-66
2023/08/25 04:28:00;;;;;;;41.65;26.67;;;19.60;99.90;;;;;;5093469;28;20080;-66
2023/08/25 04:30:26;;;;;;;37.70;25.55;;;19.60;99.90;;;;;;5091571;28;20036;-66
2023/08/25 04:32:52;;;;;;;38.40;26.17;;;19.60;99.90;;;;;;5089205;28;20036;-66
2023/08/25 04:35:18;;;;;;;40.47;26.27;;;19.50;99.90;;;;;;5091687;28;20485;-67
2023/08/25 04:37:47;;;;;;;38.70;25.35;;;19.50;99.90;;;;;;5093430;28;20066;-66
2023/08/25 04:40:14;;;;;;;41.67;26.35;;;19.60;99.90;;;;;;5090182;28;20327;-66
2023/08/25 04:42:40;;;;;;;37.40;25.40;;;19.50;99.90;;;;;;5092187;28;20039;-66
2023/08/25 04:45:07;;;;;;;40.70;26.33;;;19.50;99.90;;;;;;5093176;28;20557;-66
2023/08/25 04:47:32;;;;;;;35.78;25.20;;;19.50;99.90;;;;;;5092497;28;20164;-66
2023/08/25 04:50:02;;;;;;;37.78;25.50;;;19.50;99.90;;;;;;5082881;28;20510;-66
2023/08/25 04:52:28;;;;;;;35.75;25.35;;;19.50;99.90;;;;;;5083540;28;20228;-67
2023/08/25 04:54:53;;;;;;;35.95;24.05;;;19.50;99.90;;;;;;5093023;28;20456;-66
2023/08/25 04:57:19;;;;;;;37.35;24.88;;;19.50;99.90;;;;;;5092435;28;20044;-66
2023/08/25 04:59:44;;;;;;;35.83;24.60;;;19.50;99.90;;;;;;5081725;28;20028;-66
2023/08/25 05:02:10;;;;;;;39.97;25.42;;;19.50;99.90;;;;;;5088653;28;20080;-66
2023/08/25 05:04:36;;;;;;;39.05;25.83;;;19.50;99.90;;;;;;5091563;28;20513;-66
2023/08/25 05:07:01;;;;;;;39.88;26.38;;;19.50;99.90;;;;;;5082922;28;20051;-66
2023/08/25 05:09:27;;;;;;;35.95;25.02;;;19.50;99.90;;;;;;5091434;28;20035;-66
2023/08/25 05:11:52;;;;;;;40.13;26.38;;;19.50;99.90;;;;;;5093273;28;20063;-66
2023/08/25 05:14:18;;;;;;;47.60;29.13;;;19.50;99.90;;;;;;5092070;28;20031;-66
2023/08/25 05:16:43;;;;;;;41.35;27.83;;;19.50;99.90;;;;;;5084394;28;20039;-66
2023/08/25 05:19:11;;;;;;;43.38;27.70;;;19.50;99.90;;;;;;5091599;28;20486;-66
2023/08/25 05:21:37;;;;;;;42.85;28.35;;;19.50;99.90;;;;;;5089424;28;20039;-66
2023/08/25 05:24:25;;;;;;;42.67;27.83;;;19.50;99.90;;;;;;5091858;28;20040;-66
2023/08/25 05:26:52;;;;;;;42.63;27.80;;;19.50;99.90;;;;;;5091553;28;20036;-66
2023/08/25 05:29:22;;;;;;;41.92;27.33;;;19.50;99.90;;;;;;5091706;28;20050;-66
2023/08/25 05:31:48;;;;;;;44.70;29.08;;;19.60;99.90;;;;;;5090580;28;20498;-66
2023/08/25 05:34:14;;;;;;;44.67;27.83;;;19.50;99.90;;;;;;5089739;28;20040;-66
2023/08/25 05:36:40;;;;;;;43.97;28.23;;;19.60;99.90;;;;;;5092353;28;20115;-66
2023/08/25 05:39:06;;;;;;;44.08;29.33;;;19.60;99.90;;;;;;5085981;28;20112;-66
2023/08/25 05:41:32;;;;;;;49.80;29.90;;;19.60;99.90;;;;;;5090939;28;20485;-67
2023/08/25 05:43:58;;;;;;;51.20;30.52;;;19.60;99.90;;;;;;5091885;28;20044;-66
2023/08/25 05:46:24;;;;;;;46.70;29.88;;;19.70;99.90;;;;;;5092053;28;20038;-66
2023/08/25 05:48:50;;;;;;;43.65;29.65;;;19.70;99.90;;;;;;5089959;28;20031;-66
2023/08/25 05:51:15;;;;;;;47.15;30.00;;;19.70;99.90;;;;;;5089754;28;20486;-66
2023/08/25 05:53:41;;;;;;;46.47;29.15;;;19.70;99.90;;;;;;5091345;28;20459;-66
2023/08/25 05:56:07;;;;;;;45.03;28.65;;;19.80;99.90;;;;;;5080871;28;20040;-66
2023/08/25 05:58:32;;;;;;;44.17;29.88;;;19.80;99.90;;;;;;5086420;28;20055;-66
2023/08/25 06:00:58;;;;;;;50.60;30.05;;;19.90;99.90;;;;;;5073749;28;20075;-66
2023/08/25 06:03:25;;;;;;;46.65;29.55;;;19.90;99.90;;;;;;5089345;28;20083;-66
2023/08/25 06:05:53;;;;;;;47.70;30.50;;;19.90;99.90;;;;;;5088614;28;20031;-66
2023/08/25 06:08:20;;;;;;;48.08;30.08;;;20.00;99.90;;;;;;5090806;28;20078;-66
2023/08/25 06:10:46;;;;;;;44.72;29.02;;;20.00;99.90;;;;;;5090700;28;20040;-66
2023/08/25 06:13:13;;;;;;;49.20;30.75;;;20.10;99.90;;;;;;5090501;28;20477;-66
2023/08/25 06:15:39;;;;;;;51.28;31.05;;;20.20;99.90;;;;;;5090471;28;20036;-66
2023/08/25 06:18:04;;;;;;;46.20;31.50;;;20.20;99.90;;;;;;5089411;28;20472;-66
2023/08/25 06:20:30;;;;;;;46.05;31.15;;;20.20;99.90;;;;;;5087281;28;20389;-66
2023/08/25 06:22:57;;;;;;;49.45;31.60;;;20.10;99.90;;;;;;5083417;28;20166;-66
2023/08/25 06:25:23;;;;;;;47.95;30.02;;;20.20;99.90;;;;;;5089798;28;20054;-66
2023/08/25 06:27:48;;;;;;;48.13;30.42;;;20.20;99.90;;;;;;5089696;28;20032;-66
2023/08/25 06:30:16;;;;;;;49.75;31.67;;;20.20;99.90;;;;;;5083678;28;20417;-66
2023/08/25 06:32:42;;;;;;;50.78;32.22;;;20.20;99.90;;;;;;5087068;28;20028;-66
2023/08/25 06:35:08;;;;;;;54.97;33.20;;;20.20;99.90;;;;;;5088198;28;20036;-66
2023/08/25 06:37:34;;;;;;;51.88;31.67;;;20.20;99.90;;;;;;5088264;28;20036;-66
2023/08/25 06:39:59;;;;;;;51.47;31.90;;;20.20;99.90;;;;;;5087708;28;20398;-66
2023/08/25 06:42:25;;;;;;;52.08;31.58;;;20.30;99.90;;;;;;5091457;28;20032;-66
2023/08/25 06:44:50;;;;;;;50.45;32.63;;;20.30;99.90;;;;;;5088142;28;20451;-66
2023/08/25 06:47:16;;;;;;;51.85;31.85;;;20.40;99.90;;;;;;5097145;22;20178;-64
2023/08/25 06:49:42;;;;;;;50.70;31.92;;;20.40;99.90;;;;;;5070660;28;20482;-65
2023/08/25 06:52:07;;;;;;;51.72;32.95;;;20.40;99.90;;;;;;5069071;28;20071;-64
2023/08/25 06:54:33;;;;;;;47.60;33.15;;;20.50;99.90;;;;;;5057760;28;20139;-64
2023/08/25 06:56:58;;;;;;;50.53;31.90;;;20.50;99.90;;;;;;5070520;28;20469;-65
2023/08/25 06:59:24;;;;;;;51.63;32.08;;;20.50;99.90;;;;;;5066655;28;20037;-65
2023/08/25 07:01:50;;;;;;;54.03;33.65;;;20.50;99.90;;;;;;5063139;28;20041;-65
2023/08/25 07:04:15;;;;;;;55.88;33.45;;;20.50;99.90;;;;;;5065885;28;20043;-64
2023/08/25 07:06:41;;;;;;;56.65;34.10;;;20.50;99.90;;;;;;5073624;28;20037;-64
2023/08/25 07:09:07;;;;;;;54.75;32.28;;;20.50;99.90;;;;;;5076178;28;20036;-64
2023/08/25 07:11:32;;;;;;;50.22;32.92;;;20.50;99.90;;;;;;5070718;28;20043;-64
2023/08/25 07:13:58;;;;;;;51.33;31.85;;;20.50;99.90;;;;;;5053831;28;20044;-64
2023/08/25 07:16:25;;;;;;;51.80;32.67;;;20.50;99.90;;;;;;5072273;28;20032;-64
2023/08/25 07:18:50;;;;;;;51.28;31.85;;;20.50;99.90;;;;;;5066812;28;20478;-65
2023/08/25 07:21:16;;;;;;;51.63;31.27;;;20.60;99.90;;;;;;5059653;28;20086;-65
2023/08/25 07:23:42;;;;;;;52.15;31.90;;;20.60;99.90;;;;;;5064144;28;20085;-65
2023/08/25 07:26:08;;;;;;;48.90;31.23;;;20.70;99.90;;;;;;5057153;28;20410;-64
2023/08/25 07:28:34;;;;;;;50.33;33.22;;;20.70;99.90;;;;;;5066211;28;20048;-64
2023/08/25 07:31:00;;;;;;;52.42;32.45;;;20.70;99.90;;;;;;5072877;28;20032;-65
2023/08/25 07:33:26;;;;;;;52.58;32.72;;;20.70;99.90;;;;;;5053863;28;20041;-65
2023/08/25 07:35:52;;;;;;;33.90;21.67;;;20.80;99.90;;;;;;5060429;28;20427;-65
2023/08/25 07:38:17;;;;;;;47.30;30.25;;;20.80;99.90;;;;;;5074831;28;20040;-64
2023/08/25 07:40:43;;;;;;;51.95;32.08;;;20.90;99.90;;;;;;5067493;28;20538;-65
2023/08/25 07:43:09;;;;;;;50.47;31.55;;;21.00;99.90;;;;;;5055087;28;20098;-65
2023/08/25 07:45:36;;;;;;;48.47;31.10;;;21.00;99.90;;;;;;5070821;28;20162;-65
2023/08/25 07:48:02;;;;;;;47.55;30.05;;;21.10;99.90;;;;;;5069909;28;20238;-65
2023/08/25 07:50:29;;;;;;;47.22;29.63;;;21.20;99.90;;;;;;5071616;28;20044;-65
2023/08/25 07:52:55;;;;;;;47.08;30.15;;;21.10;99.90;;;;;;5069739;28;20032;-65
2023/08/25 07:55:21;;;;;;;48.38;31.20;;;21.20;99.90;;;;;;5053090;28;20051;-65
2023/08/25 07:57:47;;;;;;;45.08;29.90;;;21.30;99.90;;;;;;5056286;28;20028;-65
2023/08/25 08:00:15;;;;;;;47.53;30.25;;;21.40;99.90;;;;;;5070716;28;20045;-65
2023/08/25 08:02:49;;;;;;;47.90;29.33;;;21.40;99.90;;;;;;5073300;28;20032;-66
2023/08/25 08:05:17;;;;;;;48.70;30.40;;;21.50;99.90;;;;;;5048559;28;20047;-65
2023/08/25 08:07:44;;;;;;;48.65;30.83;;;21.60;99.90;;;;;;5073044;28;20153;-65
2023/08/25 08:10:10;;;;;;;47.70;30.05;;;21.60;99.90;;;;;;5072387;28;20036;-65
2023/08/25 08:12:37;;;;;;;47.70;29.63;;;21.60;99.90;;;;;;5047562;28;20101;-65
2023/08/25 08:15:04;;;;;;;43.97;29.23;;;21.60;99.90;;;;;;5046174;28;20033;-65
2023/08/25 08:17:30;;;;;;;44.17;29.00;;;21.50;99.90;;;;;;5063311;28;20035;-65
2023/08/25 08:19:56;;;;;;;47.13;30.88;;;21.50;99.90;;;;;;5069340;28;20475;-65
2023/08/25 08:22:21;;;;;;;45.75;29.20;;;21.50;99.90;;;;;;5065135;28;20031;-64
2023/08/25 08:24:50;;;;;;;46.65;29.63;;;21.40;99.90;;;;;;5073376;28;20037;-65
2023/08/25 08:27:17;;;;;;;44.75;29.60;;;21.40;99.90;;;;;;5050256;28;20033;-65
2023/08/25 08:29:44;;;;;;;48.25;31.33;;;21.50;99.90;;;;;;5069675;28;20059;-64
2023/08/25 08:32:10;;;;;;;49.03;31.52;;;21.50;99.90;;;;;;5070167;28;20036;-64
2023/08/25 08:34:36;;;;;;;51.25;32.22;;;21.40;99.90;;;;;;5072364;28;20028;-65
2023/08/25 08:37:05;;;;;;;48.65;31.30;;;21.40;99.90;;;;;;5070611;28;20048;-65
2023/08/25 08:39:34;;;;;;;46.75;30.75;;;21.40;99.90;;;;;;5072815;28;20035;-65
2023/08/25 08:42:04;;;;;;;47.85;30.83;;;21.30;99.90;;;;;;5050387;28;20180;-65
2023/08/25 08:44:31;;;;;;;45.35;29.95;;;21.40;99.90;;;;;;5067402;28;20033;-64
2023/08/25 08:46:56;;;;;;;48.78;30.27;;;21.30;99.90;;;;;;5052159;28;20047;-65
2023/08/25 08:49:24;;;;;;;47.17;32.10;;;21.30;99.90;;;;;;5072545;28;20498;-65
2023/08/25 08:51:50;;;;;;;51.75;30.60;;;21.40;99.90;;;;;;5069514;28;20068;-64
2023/08/25 08:54:19;;;;;;;54.78;31.88;;;21.50;99.90;;;;;;5073003;28;20044;-65
2023/08/25 08:56:46;;;;;;;48.30;30.13;;;21.50;99.90;;;;;;5073053;28;20093;-65
2023/08/25 08:59:11;;;;;;;42.75;28.05;;;21.50;99.90;;;;;;5069185;28;20036;-65
2023/08/25 09:01:38;;;;;;;43.67;29.02;;;21.60;99.90;;;;;;5044196;28;20033;-65
2023/08/25 09:04:07;;;;;;;45.78;30.48;;;21.60;99.90;;;;;;5070567;28;20169;-64
2023/08/25 09:06:36;;;;;;;45.90;30.92;;;21.70;99.90;;;;;;5063958;28;20047;-64
2023/08/25 09:09:08;;;;;;;44.10;29.35;;;21.70;99.90;;;;;;5070531;28;20049;-64
2023/08/25 09:11:35;;;;;;;46.40;29.75;;;21.60;99.90;;;;;;5066319;28;20086;-65
2023/08/25 09:14:04;;;;;;;40.38;28.17;;;21.60;99.90;;;;;;5069180;28;20040;-64
2023/08/25 09:16:35;;;;;;;45.17;28.92;;;21.70;99.90;;;;;;5047322;28;20064;-65
2023/08/25 09:19:05;;;;;;;40.67;27.60;;;21.70;99.90;;;;;;5069415;28;20048;-65
2023/08/25 09:21:31;;;;;;;41.60;28.35;;;21.70;99.90;;;;;;5049776;28;20051;-65
2023/08/25 09:23:59;;;;;;;40.20;27.77;;;21.60;99.90;;;;;;5069978;28;20037;-64
2023/08/25 09:26:25;;;;;;;41.38;27.90;;;21.60;99.90;;;;;;5071810;28;20098;-65
2023/08/25 09:28:53;;;;;;;42.35;28.38;;;21.70;99.90;;;;;;5062199;28;20559;-65
2023/08/25 09:31:27;;;;;;;36.92;25.98;;;21.70;99.90;;;;;;5072528;28;20059;-65
2023/08/25 09:34:02;;;;;;;44.25;27.27;;;21.70;99.90;;;;;;5051070;28;20051;-65
2023/08/25 09:36:29;;;;;;;47.67;29.92;;;21.80;99.90;;;;;;5066606;28;20116;-65
2023/08/25 09:38:55;;;;;;;42.13;28.40;;;21.80;99.90;;;;;;5071344;28;20068;-65
2023/08/25 09:41:28;;;;;;;41.03;27.65;;;21.80;99.90;;;;;;5048568;28;20114;-65
2023/08/25 09:44:01;;;;;;;42.58;28.33;;;21.80;99.90;;;;;;5068319;28;20064;-65
2023/08/25 09:46:31;;;;;;;39.58;27.88;;;21.80;99.90;;;;;;5059791;28;20036;-64
2023/08/25 09:49:08;;;;;;;42.38;27.85;;;21.80;99.90;;;;;;5067305;28;20032;-65
2023/08/25 09:51:39;;;;;;;42.53;28.67;;;21.70;99.90;;;;;;5066722;28;20075;-65
2023/08/25 09:54:16;;;;;;;43.85;28.90;;;21.70;99.90;;;;;;5069099;28;20033;-65
2023/08/25 09:56:43;;;;;;;42.35;28.48;;;21.70;99.90;;;;;;5067891;28;20043;-65
2023/08/25 09:59:11;;;;;;;40.10;27.50;;;21.70;99.90;;;;;;5070646;28;20048;-65
2023/08/25 10:01:38;;;;;;;39.33;27.30;;;21.60;99.90;;;;;;5061954;28;20040;-63
2023/08/25 10:04:05;;;;;;;37.55;25.88;;;21.70;99.90;;;;;;5045584;28;20056;-63
2023/08/25 10:06:32;;;;;;;41.28;26.73;;;21.60;99.90;;;;;;5068309;28;20040;-62
2023/08/25 10:08:59;;;;;;;40.22;27.20;;;21.50;99.90;;;;;;5071466;28;20047;-63
2023/08/25 10:11:28;;;;;;;41.40;28.30;;;21.60;99.90;;;;;;5052935;28;20036;-63
2023/08/25 10:13:56;;;;;;;40.70;28.00;;;21.60;99.90;;;;;;5068459;28;20047;-63
2023/08/25 10:16:25;;;;;;;42.33;28.40;;;21.60;99.90;;;;;;5069614;28;20491;-63
2023/08/25 10:18:54;;;;;;;45.92;29.63;;;21.60;99.90;;;;;;5071217;28;20032;-63
2023/08/25 10:21:20;;;;;;;48.33;30.42;;;21.70;99.90;;;;;;5064410;28;20486;-63
2023/08/25 10:23:50;;;;;;;50.47;31.52;;;21.80;99.90;;;;;;5070768;28;20082;-63
2023/08/25 10:26:16;;;;;;;41.22;26.65;;;21.90;99.90;;;;;;5069134;28;20477;-63
2023/08/25 10:28:45;;;;;;;37.15;24.23;;;22.00;99.90;;;;;;5071196;28;20029;-63
2023/08/25 10:31:12;;;;;;;38.83;23.75;;;22.00;99.90;;;;;;5068920;28;20542;-63
2023/08/25 10:33:50;;;;;;;39.15;25.38;;;22.10;99.90;;;;;;5051244;28;20063;-64
2023/08/25 10:36:23;;;;;;;31.52;22.92;;;22.00;99.90;;;;;;5064061;28;20041;-64
2023/08/25 10:38:54;;;;;;;35.03;24.92;;;22.10;99.90;;;;;;5062104;28;20028;-65
2023/08/25 10:41:21;;;;;;;35.92;26.55;;;22.10;99.90;;;;;;5066044;28;20048;-64
2023/08/25 10:43:52;;;;;;;39.65;26.15;;;22.20;99.90;;;;;;5062728;28;20028;-64
2023/08/25 10:46:20;;;;;;;35.60;24.20;;;22.40;99.90;;;;;;5067397;28;20061;-64
2023/08/25 10:48:50;;;;;;;30.67;21.75;;;22.60;99.90;;;;;;5054054;28;20055;-64
2023/08/25 10:51:21;;;;;;;28.10;19.63;;;22.80;99.90;;;;;;5061676;28;20043;-64
2023/08/25 10:53:53;;;;;;;24.73;18.02;;;22.90;99.90;;;;;;5068618;28;20093;-64
2023/08/25 10:56:19;;;;;;;17.42;12.63;;;23.00;99.90;;;;;;5062703;28;20064;-64
2023/08/25 10:59:03;;;;;;;14.85;11.15;;;23.10;99.90;;;;;;5067335;28;20083;-64
2023/08/25 11:01:38;;;;;;;19.10;13.88;;;23.20;99.90;;;;;;5065466;28;20041;-64
2023/08/25 11:04:11;;;;;;;21.30;15.73;;;23.30;99.90;;;;;;5068665;28;20045;-64
2023/08/25 11:06:46;;;;;;;24.13;17.10;;;23.50;99.90;;;;;;5057502;28;20034;-64
2023/08/25 11:09:18;;;;;;;21.80;16.40;;;23.60;99.90;;;;;;5071121;28;20067;-64
2023/08/25 11:11:47;;;;;;;31.52;21.55;;;23.60;99.90;;;;;;5069371;28;20040;-64
2023/08/25 11:14:13;;;;;;;30.35;22.00;;;23.60;99.90;;;;;;5066407;28;20611;-64
2023/08/25 11:16:40;;;;;;;31.42;22.05;;;23.60;99.90;;;;;;5070084;28;20486;-63
2023/08/25 11:19:10;;;;;;;28.45;20.23;;;23.60;99.90;;;;;;5067822;28;20501;-64
2023/08/25 11:21:36;;;;;;;26.00;17.77;;;23.60;99.90;;;;;;5044960;28;20066;-64
2023/08/25 11:24:02;;;;;;;22.40;16.65;;;23.60;99.90;;;;;;5069988;28;20173;-64
2023/08/25 11:26:27;;;;;;;19.30;15.02;;;23.60;99.90;;;;;;5065556;28;20045;-64
2023/08/25 11:28:53;;;;;;;21.10;15.45;;;23.70;99.90;;;;;;5067039;28;20032;-64
2023/08/25 11:31:23;;;;;;;16.67;13.55;;;23.70;99.90;;;;;;5069604;28;20033;-64
2023/08/25 11:33:52;;;;;;;16.10;11.80;;;23.70;99.90;;;;;;5069191;28;20082;-64
2023/08/25 11:36:18;;;;;;;12.63;9.57;;;23.70;99.90;;;;;;5070231;28;20047;-64
2023/08/25 11:38:51;;;;;;;9.38;8.00;;;23.60;99.90;;;;;;5069299;28;20032;-65
2023/08/25 11:41:17;;;;;;;9.18;7.22;;;23.50;99.90;;;;;;5067256;28;20036;-64
2023/08/25 11:43:46;;;;;;;9.68;6.82;;;23.40;99.90;;;;;;5070967;28;20037;-65
2023/08/25 11:46:12;;;;;;;7.03;5.13;;;23.30;99.90;;;;;;5070606;28;20154;-65
2023/08/25 11:48:38;;;;;;;10.80;5.18;;;23.30;99.90;;;;;;5070528;28;20045;-65
2023/08/25 11:51:04;;;;;;;5.72;4.15;;;23.20;99.90;;;;;;5069659;28;20039;-65
2023/08/25 11:53:31;;;;;;;7.55;3.60;;;23.00;99.90;;;;;;5072850;28;20402;-64
2023/08/25 11:56:05;;;;;;;5.55;3.92;;;22.90;99.90;;;;;;5056528;28;20124;-65
2023/08/25 11:58:35;;;;;;;6.65;4.80;;;22.80;99.90;;;;;;5072198;28;20032;-65
2023/08/25 12:01:09;;;;;;;11.75;7.10;;;22.80;99.90;;;;;;5068715;28;20126;-65
2023/08/25 12:03:35;;;;;;;11.38;7.72;;;22.70;99.90;;;;;;5061274;28;20040;-65
2023/08/25 12:06:05;;;;;;;12.85;8.98;;;22.70;99.90;;;;;;5055837;28;20041;-65
2023/08/25 12:08:32;;;;;;;11.13;7.43;;;22.70;99.90;;;;;;5074306;28;20029;-65
2023/08/25 12:10:57;;;;;;;10.10;7.03;;;22.60;99.90;;;;;;5071230;28;20037;-64
2023/08/25 12:13:29;;;;;;;7.03;5.47;;;22.70;99.90;;;;;;5069528;28;20033;-64
2023/08/25 12:15:56;;;;;;;5.40;4.22;;;22.70;99.90;;;;;;5068944;28;20433;-65
2023/08/25 12:18:22;;;;;;;6.30;4.00;;;22.70;99.90;;;;;;5073863;28;20028;-64
2023/08/25 12:20:49;;;;;;;5.40;3.88;;;22.60;99.90;;;;;;5072004;28;20029;-64
2023/08/25 12:23:15;;;;;;;6.65;4.78;;;22.60;99.90;;;;;;5063331;28;20051;-64
2023/08/25 12:25:44;;;;;;;6.53;4.35;;;22.50;99.90;;;;;;5073542;28;20433;-64
2023/08/25 12:28:10;;;;;;;6.00;3.95;;;22.50;99.90;;;;;;5069847;28;20059;-65